Time;durP1;ratioP1;P1;durP2;ratioP2;P2;SDS_P1;SDS_P2;PMS_P1;PMS_P2;Temp;Humidity;BMP_temperature;BMP_pressure;BME280_temperature;BME280_humidity;BME280_pressure;Samples;Min_cycle;Max_cycle;Signal;HPM_P1;HPM_P2
2022/03/12 00:01:18;;;;;;;26.47;13.63;;;12.00;68.50;;;;;;5011789;28;20223;-78
2022/03/12 00:03:45;;;;;;;29.37;13.40;;;12.00;68.70;;;;;;5026026;28;20186;-78
2022/03/12 00:06:10;;;;;;;24.23;13.57;;;12.00;68.90;;;;;;4994849;28;20181;-78
2022/03/12 00:08:43;;;;;;;25.07;12.93;;;12.00;69.10;;;;;;5026847;28;21325;-79
2022/03/12 00:11:18;;;;;;;27.00;13.47;;;12.00;69.30;;;;;;5028226;28;20185;-78
2022/03/12 00:13:46;;;;;;;24.23;13.47;;;12.00;69.60;;;;;;5011781;28;20260;-78
2022/03/12 00:16:18;;;;;;;27.67;13.33;;;11.90;69.70;;;;;;5028893;28;20175;-77
2022/03/12 00:18:51;;;;;;;24.63;13.70;;;12.00;70.00;;;;;;5026535;28;20244;-77
2022/03/12 00:21:17;;;;;;;29.27;15.13;;;11.90;70.10;;;;;;5027142;28;20171;-78
2022/03/12 00:23:49;;;;;;;25.83;14.13;;;11.90;70.30;;;;;;5009865;28;20290;-79
2022/03/12 00:26:16;;;;;;;23.10;13.03;;;11.90;70.50;;;;;;5023045;28;20243;-79
2022/03/12 00:28:43;;;;;;;25.03;13.00;;;11.90;70.70;;;;;;5023194;28;20200;-78
2022/03/12 00:31:09;;;;;;;29.27;13.87;;;11.90;70.90;;;;;;5040398;28;20481;-78
2022/03/12 00:33:35;;;;;;;34.43;14.33;;;11.90;71.20;;;;;;5007556;28;20187;-78
2022/03/12 00:36:03;;;;;;;22.17;12.93;;;11.80;71.50;;;;;;4996570;28;20194;-78
2022/03/12 00:38:29;;;;;;;24.60;13.03;;;11.70;72.20;;;;;;5022709;28;20274;-77
2022/03/12 00:40:55;;;;;;;23.73;13.37;;;11.50;72.80;;;;;;5009472;28;20280;-78
2022/03/12 00:43:21;;;;;;;30.40;14.30;;;11.50;73.40;;;;;;5014594;28;20198;-79
2022/03/12 00:45:49;;;;;;;24.90;13.27;;;11.30;73.90;;;;;;5026442;28;20997;-78
2022/03/12 00:48:16;;;;;;;25.07;13.70;;;11.20;74.60;;;;;;5030935;28;20510;-79
2022/03/12 00:50:42;;;;;;;24.93;13.57;;;11.20;75.30;;;;;;5045699;28;20174;-78
2022/03/12 00:53:08;;;;;;;23.37;13.67;;;11.10;76.00;;;;;;5046623;28;20271;-78
2022/03/12 00:55:34;;;;;;;26.03;13.40;;;11.10;76.80;;;;;;5044294;28;20243;-79
2022/03/12 00:58:00;;;;;;;27.93;15.40;;;11.10;77.30;;;;;;5026321;28;20208;-77
2022/03/12 01:00:27;;;;;;;27.07;14.83;;;11.00;77.90;;;;;;5039987;28;20625;-79
2022/03/12 01:02:54;;;;;;;26.67;13.60;;;11.00;78.40;;;;;;5028101;28;20246;-78
2022/03/12 01:05:39;;;;;;;27.73;14.00;;;11.00;79.00;;;;;;5026443;28;20277;-78
2022/03/12 01:08:06;;;;;;;23.77;13.43;;;11.00;79.70;;;;;;5015355;28;20190;-78
2022/03/12 01:10:32;;;;;;;26.10;13.33;;;10.90;80.10;;;;;;4996466;28;20711;-76
2022/03/12 01:12:58;;;;;;;29.63;15.20;;;10.90;80.70;;;;;;5010156;28;20293;-79
2022/03/12 01:15:24;;;;;;;24.93;13.40;;;10.90;81.20;;;;;;4996075;28;20297;-78
2022/03/12 01:17:51;;;;;;;24.60;14.30;;;10.90;81.70;;;;;;5015310;28;20190;-78
2022/03/12 01:20:22;;;;;;;25.70;14.13;;;10.90;82.30;;;;;;5025752;28;20179;-78
2022/03/12 01:22:47;;;;;;;29.73;14.47;;;10.90;83.10;;;;;;5029144;28;20636;-78
2022/03/12 01:25:13;;;;;;;24.53;13.73;;;10.90;83.70;;;;;;4997887;28;20311;-77
2022/03/12 01:27:39;;;;;;;28.97;14.80;;;10.90;84.30;;;;;;5013347;28;20195;-77
2022/03/12 01:30:07;;;;;;;24.60;13.77;;;10.90;85.10;;;;;;5008865;28;20178;-79
2022/03/12 01:32:34;;;;;;;26.57;13.17;;;10.80;85.90;;;;;;5029481;28;20183;-78
2022/03/12 01:35:00;;;;;;;20.83;12.30;;;10.80;86.60;;;;;;5024986;28;20221;-77
2022/03/12 01:37:25;;;;;;;25.60;13.20;;;10.80;87.60;;;;;;5013941;28;20228;-78
2022/03/12 01:39:51;;;;;;;22.27;12.70;;;10.70;88.50;;;;;;5026663;28;20193;-79
2022/03/12 01:42:20;;;;;;;27.00;13.23;;;10.70;89.50;;;;;;5010064;28;20403;-77
2022/03/12 01:44:46;;;;;;;26.37;14.47;;;10.70;90.30;;;;;;4998912;28;20597;-77
2022/03/12 01:47:15;;;;;;;22.30;12.10;;;10.70;90.80;;;;;;5012594;28;20640;-79
2022/03/12 01:49:41;;;;;;;23.27;12.07;;;10.70;91.30;;;;;;5012505;28;20198;-77
2022/03/12 01:52:07;;;;;;;19.57;11.87;;;10.70;91.90;;;;;;5028593;28;20215;-79
2022/03/12 01:54:34;;;;;;;23.03;13.20;;;10.70;92.70;;;;;;5007582;28;20238;-78
2022/03/12 01:57:00;;;;;;;20.03;12.40;;;10.70;93.30;;;;;;5026947;28;20717;-77
2022/03/12 01:59:26;;;;;;;22.43;12.13;;;10.70;94.00;;;;;;5022180;28;20271;-78
2022/03/12 02:01:52;;;;;;;23.27;12.87;;;10.80;94.60;;;;;;5022286;28;20225;-77
2022/03/12 02:04:20;;;;;;;19.20;10.70;;;10.80;95.30;;;;;;5008357;28;20243;-78
2022/03/12 02:06:47;;;;;;;21.33;11.40;;;10.80;95.90;;;;;;5023844;28;20286;-78
2022/03/12 02:09:15;;;;;;;18.73;10.93;;;10.90;96.50;;;;;;5026492;28;20291;-78
2022/03/12 02:11:43;;;;;;;18.00;9.70;;;10.80;97.10;;;;;;5026742;28;20238;-76
2022/03/12 02:14:15;;;;;;;16.83;9.80;;;10.90;97.70;;;;;;5023799;28;20210;-79
2022/03/12 02:16:58;;;;;;;15.77;9.63;;;10.90;98.40;;;;;;5025028;28;20197;-78
2022/03/12 02:19:26;;;;;;;14.63;8.77;;;10.90;99.20;;;;;;5026534;28;20257;-77
2022/03/12 02:22:03;;;;;;;17.73;9.20;;;10.90;99.70;;;;;;5024046;28;20219;-78
2022/03/12 02:24:30;;;;;;;13.63;8.57;;;11.00;99.90;;;;;;5023952;28;20220;-78
2022/03/12 02:26:58;;;;;;;14.03;8.40;;;11.00;99.90;;;;;;5022832;28;22781;-77
2022/03/12 02:29:24;;;;;;;15.27;8.43;;;11.00;99.90;;;;;;5024973;28;20274;-78
2022/03/12 02:32:14;;;;;;;12.13;7.80;;;11.00;99.90;;;;;;5023056;28;20221;-78
2022/03/12 02:34:44;;;;;;;15.60;8.40;;;11.10;99.90;;;;;;5035687;28;20276;-78
2022/03/12 02:37:11;;;;;;;14.20;8.73;;;11.10;99.90;;;;;;5023566;28;20269;-78
2022/03/12 02:39:39;;;;;;;13.77;7.87;;;11.00;99.90;;;;;;5006706;28;20198;-77
2022/03/12 02:42:07;;;;;;;13.53;8.10;;;11.00;99.90;;;;;;5023064;28;20187;-78
2022/03/12 02:44:34;;;;;;;13.60;8.00;;;11.00;99.90;;;;;;5022756;28;20282;-77
2022/03/12 02:47:22;;;;;;;14.63;7.90;;;10.90;99.90;;;;;;5021045;28;20202;-78
2022/03/12 02:49:49;;;;;;;12.57;7.80;;;11.00;99.90;;;;;;5012783;28;20587;-78
2022/03/12 02:52:17;;;;;;;11.37;6.87;;;11.00;99.90;;;;;;5024766;28;20282;-77
2022/03/12 02:54:44;;;;;;;11.50;6.43;;;10.90;99.90;;;;;;5022210;28;20269;-79
2022/03/12 02:57:11;;;;;;;11.13;6.53;;;11.00;99.90;;;;;;5022724;28;20195;-76
2022/03/12 02:59:38;;;;;;;10.93;7.07;;;11.00;99.90;;;;;;5009932;28;20317;-79
2022/03/12 03:02:08;;;;;;;12.93;7.60;;;11.00;99.90;;;;;;5009529;28;20672;-78
2022/03/12 03:04:35;;;;;;;12.87;6.10;;;11.00;99.90;;;;;;5006126;28;20677;-77
2022/03/12 03:07:08;;;;;;;8.90;6.13;;;11.00;99.90;;;;;;5020685;28;20195;-79
2022/03/12 03:09:35;;;;;;;10.37;6.80;;;10.90;99.90;;;;;;5029844;28;20226;-77
2022/03/12 03:12:07;;;;;;;10.50;6.37;;;11.00;99.90;;;;;;5006367;28;20276;-78
2022/03/12 03:14:33;;;;;;;8.57;5.50;;;11.00;99.90;;;;;;5006694;28;20241;-78
2022/03/12 03:16:59;;;;;;;8.57;5.43;;;11.10;99.90;;;;;;5021738;28;20208;-78
2022/03/12 03:19:26;;;;;;;9.30;5.37;;;11.10;99.90;;;;;;5023435;28;20206;-79
2022/03/12 03:21:57;;;;;;;7.27;4.80;;;11.10;99.90;;;;;;5011041;28;20230;-77
2022/03/12 03:24:24;;;;;;;7.43;4.33;;;11.10;99.90;;;;;;5020748;28;20216;-79
2022/03/12 03:26:57;;;;;;;6.43;4.10;;;11.10;99.90;;;;;;5004595;28;20230;-77
2022/03/12 03:29:27;;;;;;;6.00;4.10;;;11.10;99.90;;;;;;5007443;28;20643;-79
2022/03/12 03:31:53;;;;;;;6.37;4.30;;;11.10;99.90;;;;;;5018921;28;20184;-78
2022/03/12 03:34:19;;;;;;;6.50;4.30;;;11.10;99.90;;;;;;5008521;28;20215;-78
2022/03/12 03:36:45;;;;;;;6.23;4.10;;;11.10;99.90;;;;;;5001808;28;20192;-79
2022/03/12 03:39:12;;;;;;;6.27;4.00;;;11.00;99.90;;;;;;5030002;28;20180;-80
2022/03/12 03:41:37;;;;;;;6.20;3.70;;;11.00;99.90;;;;;;5014598;28;20616;-79
2022/03/12 03:44:05;;;;;;;8.13;3.90;;;11.00;99.90;;;;;;4990406;28;20688;-79
2022/03/12 03:46:32;;;;;;;6.70;4.40;;;10.90;99.90;;;;;;5011672;28;20979;-78
2022/03/12 03:48:58;;;;;;;6.20;3.27;;;10.80;99.90;;;;;;5013171;28;20286;-80
2022/03/12 03:51:24;;;;;;;6.97;3.67;;;10.80;99.90;;;;;;4983839;28;20318;-80
2022/03/12 03:53:50;;;;;;;5.00;3.30;;;10.70;99.90;;;;;;4999969;28;20234;-80
2022/03/12 03:56:17;;;;;;;5.90;3.93;;;10.70;99.90;;;;;;5002428;28;20245;-79
2022/03/12 03:58:43;;;;;;;5.80;3.97;;;10.60;99.90;;;;;;5000687;28;20215;-80
2022/03/12 04:01:12;;;;;;;6.43;3.77;;;10.60;99.90;;;;;;5019054;28;20262;-79
2022/03/12 04:03:42;;;;;;;7.80;4.43;;;10.60;99.90;;;;;;5020395;28;20727;-80
2022/03/12 04:06:08;;;;;;;8.27;4.27;;;10.50;99.90;;;;;;5018494;28;20245;-79
2022/03/12 04:08:35;;;;;;;6.33;3.63;;;10.50;99.90;;;;;;4986177;28;20662;-79
2022/03/12 04:11:05;;;;;;;6.83;3.97;;;10.50;99.90;;;;;;5001039;28;20651;-79
2022/03/12 04:13:31;;;;;;;7.73;3.67;;;10.40;99.90;;;;;;4999856;28;20207;-79
2022/03/12 04:16:00;;;;;;;6.47;3.70;;;10.40;99.90;;;;;;5002840;28;20185;-79
2022/03/12 04:18:26;;;;;;;6.73;4.17;;;10.40;99.90;;;;;;5021881;28;20191;-81
2022/03/12 04:20:52;;;;;;;6.93;4.13;;;10.30;99.90;;;;;;4988244;28;20586;-80
2022/03/12 04:23:21;;;;;;;6.17;3.73;;;10.30;99.90;;;;;;5002707;28;20190;-79
2022/03/12 04:25:52;;;;;;;4.77;3.50;;;10.30;99.90;;;;;;5005477;28;20318;-79
2022/03/12 04:28:19;;;;;;;5.60;4.00;;;10.30;99.90;;;;;;5021456;28;20211;-79
2022/03/12 04:30:45;;;;;;;5.50;3.83;;;10.30;99.90;;;;;;5021559;28;20542;-79
2022/03/12 04:33:12;;;;;;;8.83;3.73;;;10.30;99.90;;;;;;5022087;28;20194;-78
2022/03/12 04:35:39;;;;;;;5.97;3.97;;;10.30;99.90;;;;;;5004487;28;20244;-78
2022/03/12 04:38:07;;;;;;;6.40;3.67;;;10.20;99.90;;;;;;5020585;28;20617;-79
2022/03/12 04:40:33;;;;;;;7.40;4.13;;;10.20;99.90;;;;;;5004177;28;20716;-79
2022/03/12 04:42:59;;;;;;;5.87;4.00;;;10.20;99.90;;;;;;5005294;28;20279;-80
2022/03/12 04:45:26;;;;;;;5.37;3.67;;;10.20;99.90;;;;;;5022994;28;20222;-79
2022/03/12 04:47:53;;;;;;;6.13;3.67;;;10.20;99.90;;;;;;4987639;28;20199;-79
2022/03/12 04:50:21;;;;;;;6.60;3.60;;;10.10;99.90;;;;;;5021855;28;20198;-78
2022/03/12 04:52:57;;;;;;;5.07;3.70;;;10.10;99.90;;;;;;5006126;28;20331;-79
2022/03/12 04:55:26;;;;;;;5.87;3.60;;;10.10;99.90;;;;;;5015464;28;21397;-79
2022/03/12 04:57:52;;;;;;;7.10;3.93;;;10.10;99.90;;;;;;5033123;28;20206;-79
2022/03/12 05:00:29;;;;;;;6.67;3.40;;;10.00;99.90;;;;;;4987348;28;20704;-79
2022/03/12 05:03:02;;;;;;;5.90;3.43;;;10.00;99.90;;;;;;5019143;28;20219;-77
2022/03/12 05:05:28;;;;;;;5.37;3.80;;;10.00;99.90;;;;;;5029141;28;20202;-79
2022/03/12 05:07:58;;;;;;;7.63;3.97;;;10.00;99.90;;;;;;5026140;28;20183;-78
2022/03/12 05:10:27;;;;;;;11.00;4.33;;;10.00;99.90;;;;;;5030111;28;20203;-80
2022/03/12 05:13:00;;;;;;;5.80;3.37;;;9.90;99.90;;;;;;4999435;28;20211;-79
2022/03/12 05:15:32;;;;;;;7.57;4.23;;;9.90;99.90;;;;;;5016395;28;20233;-78
2022/03/12 05:17:58;;;;;;;9.77;4.40;;;9.90;99.90;;;;;;5015339;28;20846;-79
2022/03/12 05:20:26;;;;;;;5.67;3.47;;;9.90;99.90;;;;;;5000266;28;20447;-78
2022/03/12 05:22:52;;;;;;;6.47;3.80;;;9.80;99.90;;;;;;5016573;28;20334;-79
2022/03/12 05:25:19;;;;;;;5.20;3.83;;;9.80;99.90;;;;;;5018626;28;20199;-80
2022/03/12 05:27:50;;;;;;;7.37;4.10;;;9.80;99.90;;;;;;4984899;28;20217;-80
2022/03/12 05:30:16;;;;;;;7.87;3.97;;;9.80;99.90;;;;;;5002179;28;20184;-79
2022/03/12 05:32:42;;;;;;;7.37;4.20;;;9.70;99.90;;;;;;4999838;28;20202;-79
2022/03/12 05:35:08;;;;;;;5.67;3.80;;;9.70;99.90;;;;;;5013751;28;20293;-79
2022/03/12 05:37:36;;;;;;;6.07;3.93;;;9.70;99.90;;;;;;5017792;28;20378;-79
2022/03/12 05:40:04;;;;;;;9.07;3.90;;;9.70;99.90;;;;;;5015561;28;20557;-80
2022/03/12 05:42:34;;;;;;;9.37;4.53;;;9.70;99.90;;;;;;5015714;28;20769;-79
2022/03/12 05:45:01;;;;;;;5.93;4.17;;;9.70;99.90;;;;;;5002256;28;20187;-80
2022/03/12 05:47:27;;;;;;;7.50;4.13;;;9.70;99.90;;;;;;5015769;28;20281;-79
2022/03/12 05:49:53;;;;;;;7.53;4.47;;;9.80;99.90;;;;;;5000230;28;20613;-78
2022/03/12 05:52:19;;;;;;;12.80;4.43;;;9.70;99.90;;;;;;5015861;28;20256;-80
2022/03/12 05:54:46;;;;;;;9.87;4.80;;;9.70;99.90;;;;;;5002046;28;20242;-79
2022/03/12 05:57:13;;;;;;;5.87;4.00;;;9.70;99.90;;;;;;5001292;28;20234;-79
2022/03/12 05:59:39;;;;;;;10.50;4.87;;;9.70;99.90;;;;;;5013979;28;20237;-79
2022/03/12 06:02:05;;;;;;;7.97;4.33;;;9.80;99.90;;;;;;5000709;28;20684;-79
2022/03/12 06:04:31;;;;;;;7.50;4.43;;;9.80;99.90;;;;;;4998493;28;20187;-79
2022/03/12 06:06:57;;;;;;;10.10;4.40;;;9.80;99.90;;;;;;5002796;28;20187;-80
2022/03/12 06:09:23;;;;;;;6.90;4.03;;;9.90;99.90;;;;;;5018403;28;20660;-78
2022/03/12 06:11:54;;;;;;;6.40;4.40;;;9.80;99.90;;;;;;5019456;28;20325;-78
2022/03/12 06:14:21;;;;;;;8.10;4.17;;;9.90;99.90;;;;;;5037309;28;20212;-79
2022/03/12 06:16:50;;;;;;;8.03;4.30;;;9.80;99.90;;;;;;4993277;28;20787;-78
2022/03/12 06:19:19;;;;;;;7.60;4.30;;;9.80;99.90;;;;;;5006294;28;20188;-79
2022/03/12 06:21:46;;;;;;;7.17;3.90;;;9.80;99.90;;;;;;5007256;28;20301;-79
2022/03/12 06:24:13;;;;;;;9.03;4.87;;;9.80;99.90;;;;;;5019926;28;20205;-79
2022/03/12 06:26:39;;;;;;;8.47;4.43;;;9.80;99.90;;;;;;5018782;28;20195;-79
2022/03/12 06:29:12;;;;;;;7.97;4.40;;;9.70;99.90;;;;;;5002837;28;20194;-80
2022/03/12 06:31:38;;;;;;;6.13;4.33;;;9.70;99.90;;;;;;5017598;28;20187;-78
2022/03/12 06:34:05;;;;;;;9.30;4.37;;;9.70;99.90;;;;;;4988257;28;20249;-78
2022/03/12 06:36:31;;;;;;;8.47;4.87;;;9.80;99.90;;;;;;5001901;28;20318;-79
2022/03/12 06:38:57;;;;;;;7.00;4.43;;;9.80;99.90;;;;;;4998862;28;20608;-79
2022/03/12 06:41:23;;;;;;;6.17;4.37;;;9.70;99.90;;;;;;5001372;28;20183;-78
2022/03/12 06:43:52;;;;;;;6.80;4.27;;;9.80;99.90;;;;;;5012472;28;20203;-79
2022/03/12 06:46:21;;;;;;;9.70;4.17;;;9.80;99.90;;;;;;4998066;28;20689;-80
2022/03/12 06:48:46;;;;;;;8.47;5.00;;;9.80;99.90;;;;;;4999185;28;20192;-79
2022/03/12 06:51:13;;;;;;;11.10;4.97;;;9.90;99.90;;;;;;5001240;28;20195;-79
2022/03/12 06:53:39;;;;;;;8.80;5.00;;;9.90;99.90;;;;;;5000578;28;20231;-80
2022/03/12 06:56:06;;;;;;;13.00;5.00;;;9.90;99.90;;;;;;4989814;28;20183;-78
2022/03/12 06:58:33;;;;;;;8.80;4.47;;;9.90;99.90;;;;;;4999249;28;20245;-77
2022/03/12 07:00:59;;;;;;;6.80;4.33;;;9.90;99.90;;;;;;5014883;28;20187;-79
2022/03/12 07:03:26;;;;;;;8.63;4.90;;;10.00;99.90;;;;;;5016739;28;20202;-79
2022/03/12 07:05:52;;;;;;;9.93;4.67;;;10.00;99.90;;;;;;4999645;28;20206;-79
2022/03/12 07:08:19;;;;;;;7.27;4.10;;;10.00;99.90;;;;;;5014277;28;20194;-80
2022/03/12 07:10:46;;;;;;;13.03;5.30;;;10.10;99.90;;;;;;5015133;28;20186;-79
2022/03/12 07:13:12;;;;;;;10.80;4.50;;;10.10;99.90;;;;;;5000061;28;20207;-79
2022/03/12 07:15:38;;;;;;;6.77;4.40;;;10.10;99.90;;;;;;5000688;28;20583;-79
2022/03/12 07:18:04;;;;;;;7.13;4.67;;;10.20;99.90;;;;;;4982787;28;20675;-79
2022/03/12 07:20:30;;;;;;;11.40;4.97;;;10.20;99.90;;;;;;5013327;28;20292;-79
2022/03/12 07:22:55;;;;;;;7.47;4.20;;;10.20;99.90;;;;;;5016238;28;20286;-79
2022/03/12 07:25:21;;;;;;;8.83;4.90;;;10.20;99.90;;;;;;5013806;28;20246;-80
2022/03/12 07:27:47;;;;;;;8.40;4.20;;;10.20;99.90;;;;;;5014166;28;20756;-78
2022/03/12 07:30:14;;;;;;;6.53;4.07;;;10.30;99.90;;;;;;4998075;28;20191;-79
2022/03/12 07:32:42;;;;;;;10.17;4.67;;;10.30;99.90;;;;;;5013242;28;20210;-79
2022/03/12 07:35:08;;;;;;;7.83;4.63;;;10.30;99.90;;;;;;5013164;28;20207;-80
2022/03/12 07:37:34;;;;;;;9.93;4.73;;;10.30;99.90;;;;;;5013364;28;20659;-78
2022/03/12 07:40:00;;;;;;;7.70;4.30;;;10.30;99.90;;;;;;5011357;28;20195;-79
2022/03/12 07:42:26;;;;;;;7.37;4.10;;;10.40;99.90;;;;;;5013780;28;20280;-79
2022/03/12 07:44:52;;;;;;;7.87;4.40;;;10.40;99.90;;;;;;5013574;28;20273;-80
2022/03/12 07:47:18;;;;;;;9.40;4.37;;;10.40;99.90;;;;;;5013534;28;20194;-80
2022/03/12 07:49:45;;;;;;;6.30;3.73;;;10.40;99.90;;;;;;5015381;28;20981;-80
2022/03/12 07:52:11;;;;;;;10.20;4.37;;;10.50;99.90;;;;;;5015165;28;21124;-79
2022/03/12 07:54:37;;;;;;;7.40;4.03;;;10.50;99.90;;;;;;5014144;28;20222;-80
2022/03/12 07:57:03;;;;;;;10.93;4.50;;;10.60;99.90;;;;;;5013215;28;20187;-79
2022/03/12 07:59:29;;;;;;;7.80;4.30;;;10.70;99.90;;;;;;4997525;28;20620;-78
2022/03/12 08:01:58;;;;;;;7.47;3.80;;;10.70;99.90;;;;;;4998665;28;20203;-78
2022/03/12 08:04:24;;;;;;;9.83;4.17;;;10.80;99.90;;;;;;5013927;28;20183;-80
2022/03/12 08:06:50;;;;;;;7.13;3.90;;;10.80;99.90;;;;;;5013452;28;20195;-80
2022/03/12 08:09:16;;;;;;;11.03;4.27;;;10.90;99.90;;;;;;4997534;28;20191;-79
2022/03/12 08:11:41;;;;;;;8.30;4.40;;;10.90;99.90;;;;;;4996802;28;20188;-79
2022/03/12 08:14:15;;;;;;;8.93;4.20;;;11.00;99.90;;;;;;5012480;28;20225;-80
2022/03/12 08:16:42;;;;;;;8.40;4.57;;;11.00;99.90;;;;;;5010695;28;20175;-80
2022/03/12 08:19:08;;;;;;;12.23;4.87;;;11.10;99.90;;;;;;5011981;28;20266;-78
2022/03/12 08:21:35;;;;;;;6.97;4.30;;;11.10;99.90;;;;;;4991567;28;20187;-78
2022/03/12 08:24:02;;;;;;;7.20;4.47;;;11.20;99.90;;;;;;5007692;28;20198;-80
2022/03/12 08:26:29;;;;;;;8.47;4.23;;;11.30;99.90;;;;;;5013878;28;20187;-80
2022/03/12 08:28:55;;;;;;;9.97;4.67;;;11.30;99.90;;;;;;4993645;28;20202;-80
2022/03/12 08:31:21;;;;;;;8.83;4.47;;;11.30;99.90;;;;;;5014245;28;20290;-79
2022/03/12 08:33:47;;;;;;;8.17;4.27;;;11.30;99.90;;;;;;4999486;28;20701;-79
2022/03/12 08:36:14;;;;;;;8.57;4.13;;;11.40;99.90;;;;;;5013377;28;20230;-79
2022/03/12 08:38:40;;;;;;;9.07;4.33;;;11.50;99.90;;;;;;5010903;28;20179;-80
2022/03/12 08:41:08;;;;;;;11.13;4.20;;;11.50;99.90;;;;;;4999202;28;20270;-79
2022/03/12 08:43:36;;;;;;;13.07;4.23;;;11.60;99.90;;;;;;5010294;28;20196;-78
2022/03/12 08:46:03;;;;;;;8.07;4.00;;;11.70;99.90;;;;;;5029259;28;21101;-80
2022/03/12 08:48:31;;;;;;;11.00;4.13;;;12.00;99.90;;;;;;4996114;28;20286;-79
2022/03/12 08:51:01;;;;;;;7.90;3.60;;;12.80;99.90;;;;;;5015624;28;20177;-80
2022/03/12 08:53:27;;;;;;;8.03;3.60;;;13.70;99.90;;;;;;5032253;28;20209;-79
2022/03/12 08:55:53;;;;;;;6.50;3.70;;;14.00;99.90;;;;;;5001950;28;20215;-81
2022/03/12 08:58:19;;;;;;;7.57;3.93;;;14.00;99.90;;;;;;5016570;28;20548;-78
2022/03/12 09:00:45;;;;;;;5.70;3.13;;;13.90;99.90;;;;;;5018848;28;20260;-79
2022/03/12 09:03:16;;;;;;;6.03;3.07;;;14.00;99.90;;;;;;5019278;28;20908;-80
2022/03/12 09:05:43;;;;;;;6.37;3.50;;;13.90;99.90;;;;;;5003907;28;20243;-79
2022/03/12 09:08:09;;;;;;;9.83;4.13;;;13.50;99.90;;;;;;5001373;28;20189;-80
2022/03/12 09:10:34;;;;;;;9.50;3.90;;;13.30;99.90;;;;;;5039815;28;21516;-80
2022/03/12 09:13:00;;;;;;;10.13;3.90;;;13.20;99.90;;;;;;5005535;28;20231;-80
2022/03/12 09:15:26;;;;;;;6.63;3.60;;;13.10;99.90;;;;;;5001163;28;20263;-81
2022/03/12 09:17:52;;;;;;;8.00;3.63;;;13.20;99.90;;;;;;5003886;28;20195;-79
2022/03/12 09:20:18;;;;;;;7.70;3.87;;;13.30;99.90;;;;;;5006812;28;20189;-79
2022/03/12 09:22:44;;;;;;;7.30;3.53;;;13.10;99.90;;;;;;5037828;28;20183;-81
2022/03/12 09:25:12;;;;;;;6.53;3.70;;;12.90;99.90;;;;;;5006473;28;20311;-80
2022/03/12 09:27:40;;;;;;;10.57;3.60;;;12.50;99.90;;;;;;5006834;28;20276;-78
2022/03/12 09:30:06;;;;;;;8.53;3.10;;;12.50;99.90;;;;;;5019318;28;20264;-79
2022/03/12 09:32:32;;;;;;;5.13;2.47;;;12.50;99.90;;;;;;4986522;28;20610;-79
2022/03/12 09:34:58;;;;;;;10.37;3.30;;;12.50;99.90;;;;;;5003121;28;20207;-79
2022/03/12 09:37:23;;;;;;;6.87;3.13;;;12.50;99.90;;;;;;4987008;28;20260;-79
2022/03/12 09:39:49;;;;;;;7.23;2.57;;;12.60;99.90;;;;;;5021626;28;20232;-79
2022/03/12 09:42:15;;;;;;;6.97;2.60;;;13.20;99.90;;;;;;5003267;28;20190;-79
2022/03/12 09:44:40;;;;;;;11.50;2.47;;;14.20;99.90;;;;;;5002891;28;20336;-80
2022/03/12 09:47:06;;;;;;;6.07;2.20;;;14.70;99.90;;;;;;5005664;28;20222;-79
2022/03/12 09:49:36;;;;;;;6.07;2.40;;;15.30;99.90;;;;;;5039875;28;20190;-80
2022/03/12 09:52:04;;;;;;;6.27;2.10;;;16.20;99.90;;;;;;5021478;28;20206;-81
2022/03/12 09:54:31;;;;;;;3.97;1.87;;;16.90;99.90;;;;;;4989060;28;20243;-78
2022/03/12 09:57:05;;;;;;;3.83;2.00;;;17.80;99.90;;;;;;5019964;28;20633;-80
2022/03/12 09:59:33;;;;;;;6.63;2.30;;;18.60;99.90;;;;;;5004393;28;20296;-79
2022/03/12 10:02:00;;;;;;;10.77;2.33;;;18.20;99.90;;;;;;5037780;28;20197;-80
2022/03/12 10:04:26;;;;;;;8.70;2.13;;;18.10;99.90;;;;;;5001346;28;20190;-80
2022/03/12 10:06:53;;;;;;;7.50;1.77;;;17.90;99.90;;;;;;5003208;28;20770;-79
2022/03/12 10:09:19;;;;;;;3.50;1.87;;;18.30;99.90;;;;;;5036975;28;20190;-79
2022/03/12 10:11:45;;;;;;;2.97;1.80;;;18.80;99.90;;;;;;5019866;28;20267;-80
2022/03/12 10:14:12;;;;;;;2.20;1.87;;;18.90;99.90;;;;;;5003304;28;20244;-80
2022/03/12 10:16:38;;;;;;;6.23;2.03;;;18.20;99.90;;;;;;5036685;28;20190;-80
2022/03/12 10:19:04;;;;;;;5.50;2.17;;;17.60;99.90;;;;;;5035291;28;20222;-79
2022/03/12 10:21:32;;;;;;;5.00;1.60;;;16.90;99.90;;;;;;5003942;28;20195;-79
2022/03/12 10:23:59;;;;;;;5.10;1.77;;;16.40;99.90;;;;;;5015811;28;20179;-79
2022/03/12 10:26:25;;;;;;;6.30;2.23;;;15.90;99.90;;;;;;5016986;28;20605;-78
2022/03/12 10:28:51;;;;;;;7.10;2.20;;;15.90;99.90;;;;;;5003038;28;20275;-79
2022/03/12 10:31:19;;;;;;;5.47;2.10;;;15.60;99.90;;;;;;5020351;28;20193;-79
2022/03/12 10:33:46;;;;;;;5.93;2.00;;;15.40;99.90;;;;;;5039174;28;20170;-79
2022/03/12 10:36:14;;;;;;;8.33;2.20;;;15.50;99.90;;;;;;5019720;28;20262;-79
2022/03/12 10:38:42;;;;;;;3.90;2.00;;;16.00;99.90;;;;;;5018536;28;20593;-78
2022/03/12 10:41:09;;;;;;;7.67;2.30;;;16.90;99.90;;;;;;5017015;28;20743;-80
2022/03/12 10:43:50;;;;;;;4.83;2.07;;;17.90;99.90;;;;;;5012047;28;20291;-79
2022/03/12 10:46:27;;;;;;;7.77;1.90;;;18.70;99.90;;;;;;5009867;28;20171;-77
2022/03/12 10:48:57;;;;;;;7.53;2.37;;;18.80;99.90;;;;;;5034015;28;20270;-79
2022/03/12 10:51:32;;;;;;;4.20;1.70;;;19.40;99.90;;;;;;5013420;28;20185;-79
